BCS001P EDDP-EDDL
Flight info
| Callsign | BCS001P |
|---|---|
| Flight time | 0h 56m |
| Altitude | 24000 |
| Route | ORTAG5S ORTAG Q230 WRB T854 DOMUX DOMUX1A |
| Aircraft | A306/H-SDE3FGHIRWY/LB1 |
Departure
| Time | 2026-05-04 19:02 |
|---|---|
| Airport | Leipzig/Halle Airport (EDDP) |
Arrival
| Time | 2026-05-04 19:59 |
|---|---|
| Airport | Düsseldorf Airport (EDDL) |
| Time | Latitude | Longitude | Altitude | Speed | Heading |
|---|---|---|---|---|---|
| 2026-05-04 18:35 | 51.40986 | 12.24331 | 469 ft | 0 kts | 86° |
| 2026-05-04 18:37 | 51.40987 | 12.24331 | 469 ft | 4 kts | 84° |
| 2026-05-04 18:37 | 51.40986 | 12.24331 | 474 ft | 0 kts | 86° |
| 2026-05-04 18:52 | 51.40986 | 12.24323 | 474 ft | 4 kts | 85° |
| 2026-05-04 18:52 | 51.40984 | 12.24286 | 472 ft | 4 kts | 81° |
| 2026-05-04 18:53 | 51.40975 | 12.24248 | 468 ft | 4 kts | 44° |
| 2026-05-04 18:53 | 51.40953 | 12.24229 | 470 ft | 4 kts | 7° |
| 2026-05-04 18:53 | 51.40927 | 12.24228 | 470 ft | 4 kts | 354° |
| 2026-05-04 18:53 | 51.40914 | 12.24230 | 467 ft | 1 kts | 355° |
| 2026-05-04 18:58 | 51.40939 | 12.24227 | 466 ft | 10 kts | 355° |
| 2026-05-04 18:58 | 51.41007 | 12.24219 | 471 ft | 8 kts | 356° |
| 2026-05-04 18:58 | 51.41026 | 12.24217 | 471 ft | 3 kts | 355° |
| 2026-05-04 18:59 | 51.41077 | 12.24269 | 471 ft | 16 kts | 70° |
| 2026-05-04 18:59 | 51.41091 | 12.24484 | 476 ft | 18 kts | 84° |
| 2026-05-04 18:59 | 51.41156 | 12.24587 | 476 ft | 10 kts | 12° |
| 2026-05-04 18:59 | 51.41217 | 12.24604 | 475 ft | 4 kts | 11° |
| 2026-05-04 19:00 | 51.41227 | 12.24608 | 481 ft | 0 kts | 12° |
| 2026-05-04 19:00 | 51.41231 | 12.24609 | 481 ft | 3 kts | 12° |
| 2026-05-04 19:00 | 51.41275 | 12.24624 | 476 ft | 7 kts | 12° |
| 2026-05-04 19:00 | 51.41313 | 12.24628 | 478 ft | 7 kts | 350° |
| 2026-05-04 19:01 | 51.41350 | 12.24502 | 477 ft | 19 kts | 268° |
| 2026-05-04 19:01 | 51.41349 | 12.24471 | 476 ft | 0 kts | 266° |
| 2026-05-04 19:01 | 51.41347 | 12.24429 | 474 ft | 24 kts | 266° |
| 2026-05-04 19:01 | 51.41327 | 12.23998 | 477 ft | 91 kts | 266° |
| 2026-05-04 19:02 | 51.41257 | 12.22525 | 469 ft | 176 kts | 266° |
| 2026-05-04 19:02 | 51.41147 | 12.20275 | 1261 ft | 210 kts | 266° |
| 2026-05-04 19:02 | 51.41048 | 12.17966 | 2826 ft | 209 kts | 266° |
| 2026-05-04 19:02 | 51.40944 | 12.15721 | 4641 ft | 191 kts | 265° |
| 2026-05-04 19:03 | 51.40847 | 12.13721 | 5925 ft | 173 kts | 264° |
| 2026-05-04 19:03 | 51.40755 | 12.11812 | 6642 ft | 172 kts | 263° |
| 2026-05-04 19:03 | 51.40661 | 12.09882 | 6932 ft | 173 kts | 263° |
| 2026-05-04 19:03 | 51.40565 | 12.07917 | 7292 ft | 187 kts | 263° |
| 2026-05-04 19:04 | 51.40451 | 12.05659 | 7883 ft | 216 kts | 263° |
| 2026-05-04 19:04 | 51.40330 | 12.03197 | 8722 ft | 228 kts | 263° |
| 2026-05-04 19:04 | 51.40199 | 12.00524 | 9225 ft | 256 kts | 263° |
| 2026-05-04 19:04 | 51.40054 | 11.97574 | 9995 ft | 272 kts | 263° |
| 2026-05-04 19:05 | 51.39901 | 11.94446 | 10621 ft | 293 kts | 263° |
| 2026-05-04 19:05 | 51.39733 | 11.91059 | 10999 ft | 317 kts | 263° |
| 2026-05-04 19:05 | 51.39552 | 11.87410 | 11367 ft | 339 kts | 263° |
| 2026-05-04 19:05 | 51.39360 | 11.83550 | 11804 ft | 356 kts | 263° |
| 2026-05-04 19:06 | 51.39161 | 11.79553 | 12455 ft | 364 kts | 263° |
| 2026-05-04 19:06 | 51.38965 | 11.75479 | 13179 ft | 370 kts | 265° |
| 2026-05-04 19:06 | 51.39072 | 11.71324 | 13895 ft | 378 kts | 276° |
| 2026-05-04 19:06 | 51.39622 | 11.67185 | 14611 ft | 382 kts | 282° |
| 2026-05-04 19:07 | 51.40272 | 11.63044 | 15350 ft | 385 kts | 282° |
| 2026-05-04 19:07 | 51.40931 | 11.58868 | 16070 ft | 388 kts | 282° |
| 2026-05-04 19:07 | 51.41590 | 11.54652 | 16757 ft | 393 kts | 281° |
| 2026-05-04 19:07 | 51.42252 | 11.50379 | 17432 ft | 397 kts | 281° |
| 2026-05-04 19:08 | 51.42916 | 11.46074 | 18143 ft | 400 kts | 281° |
| 2026-05-04 19:08 | 51.43582 | 11.41729 | 18777 ft | 403 kts | 281° |
| 2026-05-04 19:08 | 51.44249 | 11.37357 | 19380 ft | 405 kts | 281° |
| 2026-05-04 19:08 | 51.44920 | 11.32951 | 19988 ft | 407 kts | 281° |
| 2026-05-04 19:09 | 51.45591 | 11.28527 | 20578 ft | 410 kts | 281° |
| 2026-05-04 19:09 | 51.46265 | 11.24075 | 21149 ft | 412 kts | 281° |
| 2026-05-04 19:09 | 51.46941 | 11.19595 | 21718 ft | 415 kts | 281° |
| 2026-05-04 19:09 | 51.47620 | 11.15079 | 22268 ft | 417 kts | 281° |
| 2026-05-04 19:10 | 51.48300 | 11.10545 | 22830 ft | 419 kts | 281° |
| 2026-05-04 19:10 | 51.48949 | 11.05976 | 23335 ft | 421 kts | 280° |
| 2026-05-04 19:10 | 51.49516 | 11.01419 | 23767 ft | 423 kts | 278° |
| 2026-05-04 19:10 | 51.50049 | 10.96768 | 24191 ft | 425 kts | 278° |
| 2026-05-04 19:11 | 51.50567 | 10.92084 | 24602 ft | 426 kts | 278° |
| 2026-05-04 19:11 | 51.51083 | 10.87385 | 25011 ft | 428 kts | 278° |
| 2026-05-04 19:11 | 51.51606 | 10.82671 | 25411 ft | 429 kts | 278° |
| 2026-05-04 19:11 | 51.52134 | 10.77941 | 25808 ft | 431 kts | 278° |
| 2026-05-04 19:12 | 51.52664 | 10.73206 | 26191 ft | 432 kts | 278° |
| 2026-05-04 19:12 | 51.53615 | 10.63658 | 26910 ft | 433 kts | 270° |
| 2026-05-04 19:12 | 51.53618 | 10.58829 | 27286 ft | 433 kts | 268° |
| 2026-05-04 19:13 | 51.53608 | 10.53991 | 27625 ft | 434 kts | 267° |
| 2026-05-04 19:13 | 51.53561 | 10.49138 | 27916 ft | 435 kts | 267° |
| 2026-05-04 19:13 | 51.53492 | 10.44320 | 27967 ft | 422 kts | 266° |
| 2026-05-04 19:13 | 51.53418 | 10.39751 | 27967 ft | 398 kts | 266° |
| 2026-05-04 19:14 | 51.53344 | 10.35430 | 27970 ft | 377 kts | 266° |
| 2026-05-04 19:14 | 51.53269 | 10.31284 | 27977 ft | 369 kts | 266° |
| 2026-05-04 19:14 | 51.53192 | 10.27173 | 27980 ft | 368 kts | 266° |
| 2026-05-04 19:14 | 51.53115 | 10.23069 | 27980 ft | 368 kts | 266° |
| 2026-05-04 19:15 | 51.53038 | 10.18957 | 27982 ft | 368 kts | 266° |
| 2026-05-04 19:15 | 51.52960 | 10.14850 | 27983 ft | 368 kts | 266° |
| 2026-05-04 19:15 | 51.52883 | 10.10740 | 27984 ft | 368 kts | 265° |
| 2026-05-04 19:15 | 51.52805 | 10.06630 | 27982 ft | 368 kts | 265° |
| 2026-05-04 19:16 | 51.52725 | 10.02530 | 27984 ft | 368 kts | 265° |
| 2026-05-04 19:16 | 51.52645 | 9.98426 | 27982 ft | 368 kts | 265° |
| 2026-05-04 19:16 | 51.52562 | 9.94322 | 27982 ft | 368 kts | 265° |
| 2026-05-04 19:16 | 51.52479 | 9.90219 | 27985 ft | 368 kts | 265° |
| 2026-05-04 19:17 | 51.52394 | 9.86120 | 27984 ft | 368 kts | 265° |
| 2026-05-04 19:17 | 51.52307 | 9.82014 | 27986 ft | 368 kts | 265° |
| 2026-05-04 19:17 | 51.52220 | 9.77915 | 27987 ft | 368 kts | 265° |
| 2026-05-04 19:17 | 51.52131 | 9.73805 | 27989 ft | 368 kts | 265° |
| 2026-05-04 19:18 | 51.52039 | 9.69669 | 27864 ft | 374 kts | 265° |
| 2026-05-04 19:18 | 51.51944 | 9.65488 | 27059 ft | 377 kts | 265° |
| 2026-05-04 19:18 | 51.51845 | 9.61231 | 25929 ft | 386 kts | 265° |
| 2026-05-04 19:18 | 51.51742 | 9.56912 | 25230 ft | 385 kts | 265° |
| 2026-05-04 19:19 | 51.51643 | 9.52659 | 24752 ft | 378 kts | 265° |
| 2026-05-04 19:19 | 51.51544 | 9.48478 | 24305 ft | 372 kts | 265° |
| 2026-05-04 19:19 | 51.51444 | 9.44358 | 23848 ft | 367 kts | 265° |
| 2026-05-04 19:19 | 51.51345 | 9.40339 | 23366 ft | 363 kts | 265° |
| 2026-05-04 19:20 | 51.51244 | 9.36325 | 22872 ft | 357 kts | 265° |
| 2026-05-04 19:20 | 51.51143 | 9.32364 | 22417 ft | 352 kts | 265° |
| 2026-05-04 19:20 | 51.51042 | 9.28470 | 21960 ft | 347 kts | 265° |
| 2026-05-04 19:20 | 51.50941 | 9.24625 | 21516 ft | 343 kts | 265° |
| 2026-05-04 19:21 | 51.50841 | 9.20821 | 21079 ft | 339 kts | 265° |
| 2026-05-04 19:21 | 51.50740 | 9.17062 | 20642 ft | 335 kts | 265° |
| 2026-05-04 19:21 | 51.50639 | 9.13340 | 20207 ft | 334 kts | 265° |
| 2026-05-04 19:21 | 51.50577 | 9.09649 | 20009 ft | 326 kts | 267° |
| 2026-05-04 19:22 | 51.50587 | 9.05953 | 19983 ft | 339 kts | 268° |
| 2026-05-04 19:22 | 51.50634 | 9.02113 | 19986 ft | 348 kts | 269° |
| 2026-05-04 19:22 | 51.50697 | 8.98217 | 19984 ft | 349 kts | 269° |
| 2026-05-04 19:22 | 51.50764 | 8.94415 | 19981 ft | 332 kts | 269° |
| 2026-05-04 19:23 | 51.50825 | 8.90750 | 19999 ft | 332 kts | 269° |
| 2026-05-04 19:23 | 51.50877 | 8.86970 | 19998 ft | 342 kts | 269° |
| 2026-05-04 19:23 | 51.50925 | 8.83213 | 19994 ft | 330 kts | 269° |
| 2026-05-04 19:23 | 51.50969 | 8.79569 | 19998 ft | 324 kts | 268° |
| 2026-05-04 19:24 | 51.51009 | 8.75967 | 20003 ft | 323 kts | 268° |
| 2026-05-04 19:24 | 51.51045 | 8.72366 | 19998 ft | 323 kts | 268° |
| 2026-05-04 19:24 | 51.51081 | 8.68794 | 19983 ft | 313 kts | 268° |
| 2026-05-04 19:24 | 51.51117 | 8.65382 | 19989 ft | 298 kts | 268° |
| 2026-05-04 19:25 | 51.51153 | 8.62123 | 19991 ft | 287 kts | 268° |
| 2026-05-04 19:25 | 51.51331 | 8.58938 | 19986 ft | 290 kts | 282° |
| 2026-05-04 19:25 | 51.52279 | 8.56069 | 19996 ft | 297 kts | 307° |
| 2026-05-04 19:25 | 51.53867 | 8.53906 | 20009 ft | 302 kts | 321° |
| 2026-05-04 19:26 | 51.55625 | 8.52038 | 19998 ft | 304 kts | 323° |
| 2026-05-04 19:26 | 51.57404 | 8.50195 | 19996 ft | 304 kts | 323° |
| 2026-05-04 19:26 | 51.59186 | 8.48351 | 19999 ft | 305 kts | 323° |
| 2026-05-04 19:26 | 51.60968 | 8.46506 | 19999 ft | 305 kts | 323° |
| 2026-05-04 19:27 | 51.62749 | 8.44663 | 20011 ft | 305 kts | 323° |
| 2026-05-04 19:27 | 51.64531 | 8.42816 | 19841 ft | 305 kts | 323° |
| 2026-05-04 19:27 | 51.66306 | 8.40975 | 19583 ft | 302 kts | 323° |
| 2026-05-04 19:27 | 51.68069 | 8.39143 | 19239 ft | 302 kts | 323° |
| 2026-05-04 19:28 | 51.69832 | 8.37308 | 18901 ft | 302 kts | 323° |
| 2026-05-04 19:28 | 51.71593 | 8.35471 | 18576 ft | 301 kts | 323° |
| 2026-05-04 19:28 | 51.73350 | 8.33633 | 18256 ft | 300 kts | 323° |
| 2026-05-04 19:28 | 51.75099 | 8.31800 | 17908 ft | 299 kts | 323° |
| 2026-05-04 19:29 | 51.76832 | 8.29954 | 17588 ft | 298 kts | 323° |
| 2026-05-04 19:29 | 51.78548 | 8.28104 | 17252 ft | 296 kts | 323° |
| 2026-05-04 19:29 | 51.80253 | 8.26262 | 16924 ft | 294 kts | 323° |
| 2026-05-04 19:29 | 51.81951 | 8.24424 | 16597 ft | 293 kts | 323° |
| 2026-05-04 19:30 | 51.83638 | 8.22595 | 16272 ft | 291 kts | 323° |
| 2026-05-04 19:30 | 51.85314 | 8.20772 | 15966 ft | 289 kts | 323° |
| 2026-05-04 19:30 | 51.86977 | 8.18960 | 15651 ft | 288 kts | 323° |
| 2026-05-04 19:30 | 51.88631 | 8.17152 | 15356 ft | 286 kts | 323° |
| 2026-05-04 19:31 | 51.90275 | 8.15350 | 15061 ft | 284 kts | 323° |
| 2026-05-04 19:31 | 51.91907 | 8.13557 | 14764 ft | 283 kts | 323° |
| 2026-05-04 19:31 | 51.93529 | 8.11770 | 14460 ft | 281 kts | 323° |
| 2026-05-04 19:31 | 51.95143 | 8.09988 | 14172 ft | 280 kts | 323° |
| 2026-05-04 19:32 | 51.96746 | 8.08213 | 13989 ft | 278 kts | 323° |
| 2026-05-04 19:32 | 51.98304 | 8.06364 | 13961 ft | 277 kts | 315° |
| 2026-05-04 19:32 | 51.99484 | 8.03946 | 13960 ft | 272 kts | 294° |
| 2026-05-04 19:32 | 51.99986 | 8.01042 | 13961 ft | 266 kts | 269° |
| 2026-05-04 19:33 | 51.99694 | 7.98117 | 13977 ft | 262 kts | 249° |
| 2026-05-04 19:33 | 51.98989 | 7.95443 | 13977 ft | 262 kts | 241° |
| 2026-05-04 19:33 | 51.98091 | 7.92874 | 13959 ft | 262 kts | 237° |
| 2026-05-04 19:33 | 51.97115 | 7.90384 | 13959 ft | 262 kts | 235° |
| 2026-05-04 19:34 | 51.96118 | 7.87914 | 13963 ft | 262 kts | 235° |
| 2026-05-04 19:34 | 51.95129 | 7.85434 | 13963 ft | 262 kts | 236° |
| 2026-05-04 19:34 | 51.94156 | 7.82939 | 13993 ft | 262 kts | 236° |
| 2026-05-04 19:34 | 51.93194 | 7.80414 | 13977 ft | 264 kts | 237° |
| 2026-05-04 19:35 | 51.92236 | 7.77861 | 13975 ft | 266 kts | 237° |
| 2026-05-04 19:35 | 51.91281 | 7.75292 | 13968 ft | 266 kts | 237° |
| 2026-05-04 19:35 | 51.90328 | 7.72721 | 13973 ft | 267 kts | 237° |
| 2026-05-04 19:35 | 51.89373 | 7.70145 | 13970 ft | 267 kts | 237° |
| 2026-05-04 19:36 | 51.88419 | 7.67574 | 13965 ft | 267 kts | 237° |
| 2026-05-04 19:36 | 51.87465 | 7.65007 | 13964 ft | 266 kts | 237° |
| 2026-05-04 19:36 | 51.86510 | 7.62445 | 13963 ft | 266 kts | 237° |
| 2026-05-04 19:36 | 51.85549 | 7.59872 | 13963 ft | 266 kts | 237° |
| 2026-05-04 19:37 | 51.84592 | 7.57312 | 13962 ft | 266 kts | 237° |
| 2026-05-04 19:37 | 51.83632 | 7.54748 | 13972 ft | 266 kts | 237° |
| 2026-05-04 19:37 | 51.82671 | 7.52181 | 13959 ft | 267 kts | 237° |
| 2026-05-04 19:37 | 51.81710 | 7.49620 | 13967 ft | 267 kts | 237° |
| 2026-05-04 19:38 | 51.80747 | 7.47056 | 13755 ft | 268 kts | 237° |
| 2026-05-04 19:38 | 51.79791 | 7.44509 | 13486 ft | 263 kts | 237° |
| 2026-05-04 19:38 | 51.78849 | 7.42003 | 13161 ft | 260 kts | 237° |
| 2026-05-04 19:38 | 51.77910 | 7.39511 | 12833 ft | 259 kts | 237° |
| 2026-05-04 19:39 | 51.76974 | 7.37030 | 12488 ft | 258 kts | 237° |
| 2026-05-04 19:39 | 51.76042 | 7.34561 | 12170 ft | 257 kts | 237° |
| 2026-05-04 19:39 | 51.75113 | 7.32102 | 11847 ft | 256 kts | 237° |
| 2026-05-04 19:39 | 51.74189 | 7.29658 | 11529 ft | 255 kts | 237° |
| 2026-05-04 19:40 | 51.73267 | 7.27222 | 11183 ft | 255 kts | 237° |
| 2026-05-04 19:40 | 51.72334 | 7.24762 | 10751 ft | 259 kts | 237° |
| 2026-05-04 19:40 | 51.71395 | 7.22285 | 10449 ft | 258 kts | 238° |
| 2026-05-04 19:40 | 51.70565 | 7.19733 | 10153 ft | 257 kts | 245° |
| 2026-05-04 19:41 | 51.69880 | 7.17082 | 9976 ft | 256 kts | 247° |
| 2026-05-04 19:41 | 51.69215 | 7.14427 | 9964 ft | 256 kts | 244° |
| 2026-05-04 19:41 | 51.68310 | 7.11975 | 9968 ft | 254 kts | 233° |
| 2026-05-04 19:41 | 51.67260 | 7.09685 | 9965 ft | 254 kts | 232° |
| 2026-05-04 19:42 | 51.66188 | 7.07419 | 9963 ft | 254 kts | 231° |
| 2026-05-04 19:42 | 51.65115 | 7.05154 | 9771 ft | 254 kts | 232° |
| 2026-05-04 19:42 | 51.64048 | 7.02891 | 9442 ft | 253 kts | 232° |
| 2026-05-04 19:42 | 51.62988 | 7.00642 | 9132 ft | 251 kts | 232° |
| 2026-05-04 19:43 | 51.62291 | 6.99160 | 8910 ft | 250 kts | 232° |
| 2026-05-04 19:43 | 51.61247 | 6.96942 | 8597 ft | 248 kts | 232° |
| 2026-05-04 19:43 | 51.60209 | 6.94738 | 8296 ft | 246 kts | 231° |
| 2026-05-04 19:43 | 51.59178 | 6.92595 | 8109 ft | 238 kts | 227° |
| 2026-05-04 19:44 | 51.57983 | 6.90783 | 7981 ft | 236 kts | 220° |
| 2026-05-04 19:44 | 51.56740 | 6.89045 | 7961 ft | 237 kts | 220° |
| 2026-05-04 19:44 | 51.55495 | 6.87299 | 7970 ft | 237 kts | 220° |
| 2026-05-04 19:44 | 51.54252 | 6.85556 | 7962 ft | 237 kts | 220° |
| 2026-05-04 19:45 | 51.53007 | 6.83810 | 7963 ft | 237 kts | 220° |
| 2026-05-04 19:45 | 51.51761 | 6.82064 | 7964 ft | 237 kts | 220° |
| 2026-05-04 19:45 | 51.50422 | 6.80607 | 7871 ft | 237 kts | 201° |
| 2026-05-04 19:45 | 51.48798 | 6.80309 | 7515 ft | 238 kts | 171° |
| 2026-05-04 19:46 | 51.47290 | 6.81352 | 7216 ft | 238 kts | 148° |
| 2026-05-04 19:46 | 51.45974 | 6.82957 | 6942 ft | 237 kts | 143° |
| 2026-05-04 19:46 | 51.44698 | 6.84626 | 6628 ft | 236 kts | 143° |
| 2026-05-04 19:46 | 51.43431 | 6.86299 | 6326 ft | 236 kts | 143° |
| 2026-05-04 19:47 | 51.42173 | 6.87966 | 6025 ft | 234 kts | 143° |
| 2026-05-04 19:47 | 51.40915 | 6.89632 | 5972 ft | 235 kts | 143° |
| 2026-05-04 19:47 | 51.39662 | 6.91303 | 5976 ft | 235 kts | 141° |
| 2026-05-04 19:47 | 51.38728 | 6.93448 | 5966 ft | 241 kts | 112° |
| 2026-05-04 19:48 | 51.38468 | 6.96102 | 5975 ft | 243 kts | 95° |
| 2026-05-04 19:48 | 51.38430 | 6.98813 | 5848 ft | 245 kts | 93° |
| 2026-05-04 19:48 | 51.38415 | 7.01539 | 5515 ft | 245 kts | 93° |
| 2026-05-04 19:48 | 51.38398 | 7.04259 | 5201 ft | 244 kts | 93° |
| 2026-05-04 19:49 | 51.38376 | 7.06958 | 4994 ft | 242 kts | 93° |
| 2026-05-04 19:49 | 51.38354 | 7.09653 | 4988 ft | 243 kts | 92° |
| 2026-05-04 19:49 | 51.38638 | 7.12308 | 4974 ft | 246 kts | 68° |
| 2026-05-04 19:49 | 51.39521 | 7.14606 | 4990 ft | 246 kts | 55° |
| 2026-05-04 19:50 | 51.40576 | 7.16821 | 4987 ft | 247 kts | 53° |
| 2026-05-04 19:50 | 51.41631 | 7.18994 | 4993 ft | 247 kts | 53° |
| 2026-05-04 19:50 | 51.42743 | 7.21098 | 4930 ft | 248 kts | 41° |
| 2026-05-04 19:50 | 51.44267 | 7.22368 | 4567 ft | 249 kts | 10° |
| 2026-05-04 19:51 | 51.45919 | 7.22246 | 4343 ft | 231 kts | 338° |
| 2026-05-04 19:51 | 51.47156 | 7.20892 | 4140 ft | 206 kts | 306° |
| 2026-05-04 19:51 | 51.47660 | 7.18865 | 3721 ft | 194 kts | 273° |
| 2026-05-04 19:51 | 51.47641 | 7.16730 | 3374 ft | 190 kts | 261° |
| 2026-05-04 19:52 | 51.47197 | 7.14785 | 3081 ft | 185 kts | 238° |
| 2026-05-04 19:52 | 51.46475 | 7.13090 | 3017 ft | 184 kts | 232° |
| 2026-05-04 19:52 | 51.45713 | 7.11476 | 3017 ft | 184 kts | 231° |
| 2026-05-04 19:52 | 51.44940 | 7.09844 | 3003 ft | 184 kts | 232° |
| 2026-05-04 19:53 | 51.44169 | 7.08214 | 3008 ft | 184 kts | 231° |
| 2026-05-04 19:53 | 51.43400 | 7.06583 | 2992 ft | 183 kts | 231° |
| 2026-05-04 19:53 | 51.42629 | 7.04949 | 3007 ft | 183 kts | 231° |
| 2026-05-04 19:53 | 51.41859 | 7.03318 | 3010 ft | 183 kts | 231° |
| 2026-05-04 19:54 | 51.41108 | 7.01730 | 2989 ft | 175 kts | 231° |
| 2026-05-04 19:54 | 51.40374 | 7.00180 | 3013 ft | 174 kts | 231° |
| 2026-05-04 19:54 | 51.39647 | 6.98645 | 2998 ft | 174 kts | 231° |
| 2026-05-04 19:54 | 51.38916 | 6.97103 | 2999 ft | 173 kts | 231° |
| 2026-05-04 19:55 | 51.38184 | 6.95559 | 2947 ft | 174 kts | 231° |
| 2026-05-04 19:55 | 51.37456 | 6.94019 | 2724 ft | 173 kts | 231° |
| 2026-05-04 19:55 | 51.36729 | 6.92483 | 2474 ft | 172 kts | 232° |
| 2026-05-04 19:55 | 51.36010 | 6.90969 | 2228 ft | 169 kts | 232° |
| 2026-05-04 19:56 | 51.35299 | 6.89466 | 2001 ft | 168 kts | 231° |
| 2026-05-04 19:56 | 51.34594 | 6.87980 | 1760 ft | 168 kts | 231° |
| 2026-05-04 19:56 | 51.33912 | 6.86541 | 1538 ft | 154 kts | 230° |
| 2026-05-04 19:56 | 51.33303 | 6.85256 | 1359 ft | 136 kts | 230° |
| 2026-05-04 19:57 | 51.32747 | 6.84082 | 1163 ft | 131 kts | 230° |
| 2026-05-04 19:57 | 51.32191 | 6.82912 | 1000 ft | 133 kts | 228° |
| 2026-05-04 19:57 | 51.31632 | 6.81740 | 814 ft | 133 kts | 228° |
| 2026-05-04 19:57 | 51.31083 | 6.80573 | 576 ft | 130 kts | 231° |
| 2026-05-04 19:58 | 51.30545 | 6.79416 | 390 ft | 133 kts | 228° |
| 2026-05-04 19:58 | 51.29961 | 6.78223 | 230 ft | 140 kts | 232° |
| 2026-05-04 19:58 | 51.29387 | 6.77005 | 138 ft | 125 kts | 231° |
| 2026-05-04 19:58 | 51.28947 | 6.76084 | 140 ft | 87 kts | 233° |
| 2026-05-04 19:59 | 51.28641 | 6.75683 | 127 ft | 28 kts | 187° |
| 2026-05-04 19:59 | 51.28540 | 6.75701 | 123 ft | 10 kts | 161° |
| 2026-05-04 19:59 | 51.28487 | 6.75742 | 129 ft | 7 kts | 143° |
| 2026-05-04 19:59 | 51.28458 | 6.75780 | 128 ft | 5 kts | 141° |
| 2026-05-04 20:00 | 51.28445 | 6.75796 | 132 ft | 0 kts | 141° |
| 2026-05-04 20:03 | 51.28444 | 6.75797 | 132 ft | 0 kts | 141° |
| 2026-05-04 20:04 | 51.28426 | 6.75820 | 129 ft | 5 kts | 141° |
| 2026-05-04 20:04 | 51.28406 | 6.75844 | 133 ft | 0 kts | 142° |
| 2026-05-04 20:05 | 51.28398 | 6.75854 | 133 ft | 8 kts | 142° |
| 2026-05-04 20:05 | 51.28324 | 6.75943 | 135 ft | 9 kts | 142° |
| 2026-05-04 20:05 | 51.28275 | 6.76002 | 135 ft | 7 kts | 146° |
| 2026-05-04 20:05 | 51.28254 | 6.76023 | 135 ft | 2 kts | 146° |
| 2026-05-04 20:06 | 51.28241 | 6.76037 | 135 ft | 3 kts | 146° |
| 2026-05-04 20:06 | 51.28232 | 6.76047 | 135 ft | 0 kts | 146° |
| 2026-05-04 20:07 | 51.28230 | 6.76048 | 131 ft | 1 kts | 146° |
| 2026-05-04 20:07 | 51.28214 | 6.76067 | 135 ft | 8 kts | 143° |
| 2026-05-04 20:07 | 51.28220 | 6.76216 | 135 ft | 23 kts | 52° |
| 2026-05-04 20:08 | 51.28340 | 6.76463 | 128 ft | 30 kts | 52° |
| 2026-05-04 20:08 | 51.28449 | 6.76692 | 132 ft | 17 kts | 63° |
| 2026-05-04 20:08 | 51.28452 | 6.76752 | 133 ft | 3 kts | 101° |
| 2026-05-04 20:08 | 51.28430 | 6.76799 | 133 ft | 10 kts | 140° |
| 2026-05-04 20:09 | 51.28397 | 6.76840 | 129 ft | 0 kts | 142° |
| 2026-05-04 20:09 | 51.28393 | 6.76844 | 129 ft | 5 kts | 142° |
| 2026-05-04 20:10 | 51.28361 | 6.76891 | 134 ft | 0 kts | 128° |
| 2026-05-04 20:10 | 51.28360 | 6.76894 | 134 ft | 0 kts | 126° |
| 2026-05-04 20:10 | 51.28357 | 6.76953 | 135 ft | 14 kts | 69° |
| 2026-05-04 20:10 | 51.28411 | 6.77076 | 135 ft | 11 kts | 52° |
| 2026-05-04 20:11 | 51.28444 | 6.77141 | 135 ft | 5 kts | 50° |
| 2026-05-04 20:11 | 51.28447 | 6.77146 | 135 ft | 0 kts | 51° |
| 2026-05-04 20:11 | 51.28448 | 6.77148 | 135 ft | 0 kts | 52° |
| 2026-05-04 20:11 | 51.28449 | 6.77151 | 135 ft | 0 kts | 53° |
| 2026-05-04 20:12 | 51.28468 | 6.77192 | 135 ft | 16 kts | 53° |
| 2026-05-04 20:12 | 51.28519 | 6.77303 | 135 ft | 12 kts | 56° |
| 2026-05-04 20:12 | 51.28564 | 6.77406 | 135 ft | 8 kts | 52° |
| 2026-05-04 20:12 | 51.28601 | 6.77480 | 135 ft | 9 kts | 52° |
| 2026-05-04 20:13 | 51.28658 | 6.77618 | 135 ft | 16 kts | 79° |
| 2026-05-04 20:13 | 51.28664 | 6.77721 | 135 ft | 11 kts | 66° |
| 2026-05-04 20:13 | 51.28708 | 6.77820 | 135 ft | 13 kts | 51° |
| 2026-05-04 20:13 | 51.28762 | 6.77934 | 135 ft | 11 kts | 53° |
| 2026-05-04 20:14 | 51.28807 | 6.78029 | 135 ft | 11 kts | 53° |
| 2026-05-04 20:14 | 51.28862 | 6.78061 | 135 ft | 8 kts | 331° |
| 2026-05-04 20:14 | 51.28905 | 6.78009 | 136 ft | 7 kts | 322° |
| 2026-05-04 20:14 | 51.28918 | 6.77993 | 136 ft | 2 kts | 322° |
| 2026-05-04 20:15 | 51.28924 | 6.77985 | 136 ft | 1 kts | 323° |
| 2026-05-04 20:15 | 51.28925 | 6.77985 | 136 ft | 0 kts | 323° |